Relevés horaires Charleroi (Belgique)


Relevés horaires à Charleroi - Mardi 03 Févr. 2015
Heure UTC1 Température [°C] Vent [km/h] Hum. [%] Pres.4 [hPa] Visi. [Km] Nébu. [octa] Préc.5 [mm] Cond.
2m. Res. Ros. Dir.2 Vit. Moy. Raf.3
23:00 -0.2 -2.1 -1.5 N 5.6 5.6 7.4 91 1010.2(0.9/3h) 8 4/8 -- --
22:00 0.4 0.4 -0.7 NNO 3.7 3.7 5.6 92 1009.9(1.3/3h) 8 5/8 -- --
21:00 -0.1 -0.1 -1.3 N 1.9 3.7 5.6 92 1009.9(1.6/3h) 8 5/8 -- --
20:00 0.3 0.3 -1.5 ONO 1.9 3.7 5.6 88 1009.3(1.9/3h) 10 5/8 -- --
19:00 0.7 0.7 -1.4 NNO 1.9 3.7 5.6 86 1008.6(1.7/3h) 12 4/8 -- --
18:00 1.1 1.1 -1.5 N 3.7 5.6 7.4 83 1008(1.6/3h) 12 5/8 0/12h
--
17:00 1.7 1.7 -1.4 NNO 3.7 3.7 7.4 80 1007.2(1.1/3h) 15 6/8 -- --
16:00 1.7 1.7 -1.1 NNO 3.7 5.6 7.4 82 1006.8(0.9/3h) 15 6/8 -- --
15:00 2.2 2.2 -1.3 N 3.7 5.6 7.4 78 1006.3(0.6/3h) 15 6/8 -- --
14:00 2.0 2.0 -1.4 NNO 3.7 3.7 7.4 78 1006(0.4/3h) 15 6/8 -- --
13:00 2.2 2.2 -1.4 NNO 1.9 1.9 3.7 77 1005.9(0.5/3h) 15 6/8 -- --
12:00 1.5 1.5 -1.3 O 1.9 5.6 7.4 82 1005.8(0.8/3h) 15 7/8 0/6h
--
11:00 0.7 0.7 -1.7 OSO 3.7 3.7 5.6 84 1005.7(1.2/3h) 15 7/8 -- --
10:00 -0.5 -0.5 -2.7 OSO 3.7 3.7 5.6 85 1005.5(1.4/3h) 15 7/8 -- --
09:00 -1.0 -1.0 -3.6 OSO 3.7 5.6 7.4 82 1005.2(1.2/3h) 15 7/8 -- --
08:00 -1.3 -3.3 -4.1 OSO 5.6 5.6 7.4 81 1004.7(0.8/3h) 15 6/8 -- --
07:00 -1.2 -1.2 -3.8 SSO 3.7 5.6 7.4 82 1004.2(0.5/3h) 15 7/8 -- --
06:00 -1.1 -3.1 -3.5 SO 5.6 5.6 7.4 84 1004(0.2/3h) 15 7/8 0/12h
--
05:00 -1.2 -1.2 -3.5 SO 3.7 5.6 7.4 84 1003.8(0.0/3h) 15 7/8 -- --
04:00 -1.2 -3.2 -3.5 SSO 5.6 5.6 7.4 84 1003.7(-0.3/3h) 15 7/8 -- --
03:00 -1.1 -1.1 -3.3 SSO 3.7 5.6 7.4 85 1003.7(-0.4/3h) 15 7/8 -- --
02:00 -1.1 -1.1 -3.4 SSO 3.7 5.6 7.4 84 1003.8(-0.4/3h) 15 7/8 -- --
01:00 -1.0 -3 -3.3 SSO 5.6 5.6 7.4 84 1004(-0.4/3h) 20 7/8 -- --
00:00 -0.8 -2.8 -4.0 OSO 5.6 7.4 9.3 79 1004.1(-0.5/3h) 20 7/8 0/6h
1.6/24h
--

1 Coordinated Universal Time. Actuellement il est 15:00 locale et 13:00 UTC.

2 Le vent souffle depuis la direction indiquée vers la direction oposée.

3 Les rafales max. sont disponible 40 min après l'heure du relevé.

4 Pour les stations d'altitude (plus de 600m) le géopotentiel du niveau le plus proche de la pression obligatoire est indiqué.

5 Les stations disposant d'un diffuseur peuvent indiquer "trace". Cela signifie que des précipitations ont touchés le sol mais que la quantité est inférieure à 0.1 mm.

Récapitulatif de la journée
Température [°C] Vent [km/h] Ensoleillement4 [h] Precipitations totale5 [mm] Pression [Hpa]
Min1 Max.2 Moy.3 Max. Min Max.
-1.3 2.3 4.9 9.3 0 h 0 min 0 1003.7 1010.2

1 Température minimale relevée entre 18:00 UTC la veille et 18:00 UTC le jour donné.

2 Température maximale relevée entre 06:00 UTC le jour donné et 06:00 UTC le lendemain.

3 Vent moyen de la journée basé sur les relevés horaires.

4 Ensoleillement en heures relevé entre 06:00 UTC la veille et 06:00 UTC le jour donné.

5 Précipitations totales tombées entre 06:00 UTC la jour donné et 06:00 UTC le lendemain.

Graphiques horaires